Time;durP1;ratioP1;P1;durP2;ratioP2;P2;SDS_P1;SDS_P2;PMS_P1;PMS_P2;Temp;Humidity;BMP_temperature;BMP_pressure;BME280_temperature;BME280_humidity;BME280_pressure;Samples;Min_cycle;Max_cycle;Signal;HPM_P1;HPM_P2
2022/08/03 00:00:16;;;;;;;10.35;9.45;;;;;;;20.00;92.07;100182.43;1754970;77;20960;-91
2022/08/03 00:02:43;;;;;;;10.68;9.78;;;;;;;20.01;92.14;100184.59;1753199;80;20909;-93
2022/08/03 00:05:09;;;;;;;11.20;10.20;;;;;;;20.04;92.37;100192.27;1753120;80;21151;-92
2022/08/03 00:07:37;;;;;;;9.38;8.65;;;;;;;20.05;92.44;100194.77;1753002;80;20909;-94
2022/08/03 00:10:05;;;;;;;10.40;9.60;;;;;;;20.06;92.29;100195.59;1752998;80;20909;-91
2022/08/03 00:12:32;;;;;;;11.43;10.23;;;;;;;20.07;92.36;100191.92;1752938;81;20921;-91
2022/08/03 00:14:59;;;;;;;11.28;10.25;;;;;;;20.09;92.39;100188.60;1752797;80;20922;-91
2022/08/03 00:17:25;;;;;;;10.35;9.35;;;;;;;20.12;92.37;100187.44;1752827;80;21857;-92
2022/08/03 00:19:52;;;;;;;10.90;9.93;;;;;;;20.14;92.39;100174.80;1753073;82;20977;-92
2022/08/03 00:22:18;;;;;;;11.33;10.23;;;;;;;20.15;92.37;100177.30;1752966;80;21449;-93
2022/08/03 00:24:45;;;;;;;10.93;9.83;;;;;;;20.17;92.32;100174.48;1752898;82;20935;-92
2022/08/03 00:27:11;;;;;;;10.28;9.28;;;;;;;20.17;92.20;100177.14;1752972;80;20897;-92
2022/08/03 00:29:38;;;;;;;11.43;10.28;;;;;;;20.18;92.02;100184.13;1735341;80;21231;-92
2022/08/03 00:32:05;;;;;;;10.60;9.70;;;;;;;20.15;91.56;100187.95;1704373;84;20928;-91
2022/08/03 00:34:32;;;;;;;10.08;8.98;;;;;;;20.12;91.29;100202.08;1704401;84;20916;-91
2022/08/03 00:36:59;;;;;;;9.50;8.70;;;;;;;20.06;91.18;100192.44;1704353;83;20932;-90
2022/08/03 00:39:25;;;;;;;10.50;9.53;;;;;;;20.03;91.11;100195.91;1704227;83;20873;-91
2022/08/03 00:41:52;;;;;;;12.82;11.57;;;;;;;20.00;91.16;100196.25;1704269;82;21676;-92
2022/08/03 00:44:18;;;;;;;11.68;10.63;;;;;;;19.98;91.27;100196.91;1704274;84;20953;-89
2022/08/03 00:46:45;;;;;;;10.60;9.50;;;;;;;19.95;91.29;100189.27;1704205;83;20956;-92
2022/08/03 00:49:11;;;;;;;9.95;8.93;;;;;;;19.95;91.34;100195.91;1704355;82;20869;-92
2022/08/03 00:51:38;;;;;;;9.90;9.10;;;;;;;19.91;91.45;100199.39;1704354;83;21441;-92
2022/08/03 00:54:05;;;;;;;10.18;9.35;;;;;;;19.89;91.60;100201.38;1704295;83;21106;-91
2022/08/03 00:56:32;;;;;;;11.83;10.72;;;;;;;19.87;92.03;100212.68;1704446;84;20891;-90
2022/08/03 00:58:58;;;;;;;11.70;10.63;;;;;;;19.87;92.30;100205.52;1704072;83;20953;-93
2022/08/03 01:01:25;;;;;;;10.45;9.55;;;;;;;19.87;92.49;100196.20;1704161;84;20999;-92
2022/08/03 01:03:52;;;;;;;10.88;9.98;;;;;;;19.89;92.44;100196.05;1704375;83;21350;-92
2022/08/03 01:06:26;;;;;;;11.18;10.28;;;;;;;19.90;92.47;100196.87;1704464;82;21107;-92
2022/08/03 01:09:10;;;;;;;10.95;9.83;;;;;;;19.91;92.71;100203.37;1704613;83;20948;-93
2022/08/03 01:11:57;;;;;;;10.85;9.95;;;;;;;19.92;92.65;100193.09;1704272;84;20924;-93
2022/08/03 01:14:47;;;;;;;11.93;10.68;;;;;;;19.93;92.71;100201.39;1704241;83;21456;-91
2022/08/03 01:17:43;;;;;;;11.97;10.72;;;;;;;19.92;92.81;100194.42;1704415;82;20850;-92
2022/08/03 01:20:11;;;;;;;11.03;9.98;;;;;;;19.93;92.62;100193.91;1704039;83;21102;-92
2022/08/03 01:26:34;;;;;;;10.58;9.50;;;;;;;19.95;92.13;100184.77;1855270;77;23297;-91
2022/08/03 01:29:18;;;;;;;11.53;10.43;;;;;;;19.90;92.14;100185.77;1718506;82;21329;-92
2022/08/03 01:31:58;;;;;;;10.75;9.85;;;;;;;19.90;92.14;100186.23;1743258;82;21938;-92
2022/08/03 01:34:28;;;;;;;14.38;9.73;;;;;;;19.89;92.04;100193.39;1742670;81;20991;-93
2022/08/03 01:36:56;;;;;;;11.45;10.40;;;;;;;19.90;92.26;100194.22;1742736;82;20932;-93
2022/08/03 01:39:22;;;;;;;10.60;9.70;;;;;;;19.90;92.26;100191.08;1705921;82;20935;-93
2022/08/03 01:41:57;;;;;;;11.38;10.28;;;;;;;19.91;92.27;100184.75;1747605;82;20896;-93
2022/08/03 01:44:22;;;;;;;13.05;9.15;;;;;;;19.92;92.13;100179.78;1743080;82;21322;-93
2022/08/03 01:46:50;;;;;;;10.78;9.75;;;;;;;19.94;92.27;100179.59;1742727;81;20856;-92
2022/08/03 01:49:16;;;;;;;10.38;9.48;;;;;;;19.94;92.22;100180.92;1742893;82;20943;-91
2022/08/03 01:51:45;;;;;;;10.48;9.45;;;;;;;19.95;92.10;100184.77;1742643;82;21018;-92
2022/08/03 01:54:11;;;;;;;15.15;9.95;;;;;;;19.96;91.96;100185.08;1742925;82;21397;-92
2022/08/03 01:56:40;;;;;;;10.50;9.38;;;;;;;19.96;91.75;100181.59;1742551;82;21405;-91
2022/08/03 01:59:07;;;;;;;11.35;10.25;;;;;;;19.96;91.54;100186.41;1705842;82;20928;-92
2022/08/03 02:01:35;;;;;;;11.57;10.50;;;;;;;19.95;91.46;100182.61;1742972;82;20936;-94
2022/08/03 02:04:01;;;;;;;10.98;9.98;;;;;;;19.93;91.44;100181.43;1742609;81;20943;-92
2022/08/03 02:06:31;;;;;;;15.93;10.35;;;;;;;19.93;91.44;100184.09;1799141;78;20895;-93
2022/08/03 02:08:58;;;;;;;11.75;10.55;;;;;;;19.92;91.42;100182.91;1823070;78;21142;-92
2022/08/03 02:11:25;;;;;;;11.48;10.38;;;;;;;19.90;91.23;100184.91;1823044;78;20982;-91
2022/08/03 02:13:51;;;;;;;12.33;11.10;;;;;;;19.87;91.12;100188.73;1822959;78;20914;-91
2022/08/03 02:16:18;;;;;;;11.22;10.23;;;;;;;19.84;91.10;100183.75;1823234;78;20935;-91
2022/08/03 02:18:45;;;;;;;10.75;9.85;;;;;;;19.84;91.16;100183.75;1823290;78;21042;-92
2022/08/03 02:21:12;;;;;;;14.05;12.82;;;;;;;19.81;91.37;100184.91;1823015;78;21141;-93
2022/08/03 02:23:41;;;;;;;13.83;12.43;;;;;;;19.79;91.51;100182.91;1823048;78;20844;-93
2022/08/03 02:26:11;;;;;;;11.85;10.82;;;;;;;19.80;91.75;100181.89;1769081;78;20919;-92
2022/08/03 02:28:42;;;;;;;14.47;13.13;;;;;;;19.82;91.91;100197.20;1798880;79;20931;-92
2022/08/03 02:31:14;;;;;;;11.80;10.75;;;;;;;19.83;92.00;100188.72;1798997;79;20848;-92
2022/08/03 02:33:44;;;;;;;11.05;10.05;;;;;;;19.84;92.02;100179.25;1799900;78;21125;-93
2022/08/03 02:36:11;;;;;;;17.02;12.70;;;;;;;19.85;91.87;100164.11;1800689;77;20931;-93
2022/08/03 02:38:40;;;;;;;21.57;16.95;;;;;;;19.85;91.96;100166.77;1771621;79;20915;-92
2022/08/03 02:41:16;;;;;;;25.60;21.93;;;;;;;19.87;92.33;100165.60;1799960;77;20911;-93
2022/08/03 02:43:45;;;;;;;30.52;23.50;;;;;;;19.89;92.63;100164.12;1798736;77;20907;-92
2022/08/03 02:46:14;;;;;;;27.65;21.07;;;;;;;19.93;92.64;100163.30;1798770;78;21132;-93
2022/08/03 02:48:41;;;;;;;27.95;23.90;;;;;;;19.94;92.63;100168.95;1798487;78;20840;-93
2022/08/03 02:51:08;;;;;;;30.55;26.73;;;;;;;19.97;92.82;100165.47;1798512;77;20918;-94
2022/08/03 02:53:34;;;;;;;32.35;26.07;;;;;;;20.00;92.87;100168.30;1798450;78;20951;-92
2022/08/03 02:56:00;;;;;;;41.68;31.23;;;;;;;20.03;92.74;100163.97;1798301;77;20923;-93
2022/08/03 02:58:30;;;;;;;41.53;32.10;;;;;;;20.08;92.42;100170.47;1798629;79;21171;-92
2022/08/03 03:00:57;;;;;;;39.03;31.60;;;;;;;20.11;91.70;100172.48;1798370;77;20966;-92
2022/08/03 03:03:23;;;;;;;37.08;28.30;;;;;;;20.12;91.30;100176.78;1798852;77;20959;-92
2022/08/03 03:05:50;;;;;;;39.27;27.87;;;;;;;20.11;90.64;100165.31;1798304;78;20960;-92
2022/08/03 03:08:18;;;;;;;35.30;26.27;;;;;;;20.13;90.38;100173.14;1798395;78;20923;-93
2022/08/03 03:10:45;;;;;;;35.30;26.42;;;;;;;20.15;89.92;100174.64;1798678;78;21135;-93
2022/08/03 03:13:14;;;;;;;32.95;26.23;;;;;;;20.17;89.22;100175.31;1798765;78;21364;-92
2022/08/03 03:15:41;;;;;;;32.50;26.02;;;;;;;20.18;88.70;100178.80;1798557;77;20876;-91
2022/08/03 03:18:11;;;;;;;34.25;25.20;;;;;;;20.19;88.59;100175.16;1799041;79;20967;-89
2022/08/03 03:20:39;;;;;;;30.95;25.37;;;;;;;20.22;88.63;100172.97;1801142;77;20956;-90
2022/08/03 03:23:08;;;;;;;25.57;22.70;;;;;;;20.28;88.49;100173.65;1800485;77;21180;-91
2022/08/03 03:25:36;;;;;;;27.27;21.80;;;;;;;20.32;87.93;100171.97;1809849;77;20978;-91
2022/08/03 03:28:04;;;;;;;28.35;22.22;;;;;;;20.35;87.62;100176.48;1824734;77;20864;-89
2022/08/03 03:30:31;;;;;;;27.40;22.30;;;;;;;20.41;87.31;100180.29;1823084;78;20900;-89
2022/08/03 03:33:01;;;;;;;26.05;21.17;;;;;;;20.46;87.16;100181.98;1765032;78;20967;-91
2022/08/03 03:35:28;;;;;;;27.80;21.12;;;;;;;20.49;87.06;100177.63;1822590;78;23319;-91
2022/08/03 03:37:55;;;;;;;25.02;22.07;;;;;;;20.56;86.76;100183.95;1823129;78;20947;-91
2022/08/03 03:40:22;;;;;;;24.50;21.37;;;;;;;20.60;86.45;100181.31;1822593;78;20996;-90
2022/08/03 03:42:49;;;;;;;30.08;21.57;;;;;;;20.63;86.09;100180.14;1822443;78;20821;-91
2022/08/03 03:45:16;;;;;;;31.93;25.23;;;;;;;20.66;85.86;100177.98;1790952;78;20896;-90
2022/08/03 03:47:43;;;;;;;31.77;23.50;;;;;;;20.71;85.85;100181.48;1822462;78;21326;-90
2022/08/03 03:50:09;;;;;;;34.15;25.32;;;;;;;20.75;85.55;100180.66;1822614;78;21345;-92
2022/08/03 03:52:36;;;;;;;36.60;25.95;;;;;;;20.77;85.06;100186.65;1822869;78;20961;-91
2022/08/03 03:55:03;;;;;;;33.58;24.43;;;;;;;20.78;84.87;100185.13;1822549;78;21388;-91
2022/08/03 03:57:30;;;;;;;35.60;26.48;;;;;;;20.80;84.84;100184.45;1822490;78;20884;-89
2022/08/03 03:59:56;;;;;;;31.73;25.37;;;;;;;20.83;84.94;100187.28;1822203;78;21220;-91
2022/08/03 04:02:23;;;;;;;31.85;26.17;;;;;;;20.85;84.92;100186.14;1822124;78;20935;-91
2022/08/03 04:11:00;;;;;;;36.13;26.50;;;;;;;20.91;84.55;100188.61;1822713;78;20863;-93
2022/08/03 04:13:34;;;;;;;37.28;27.48;;;;;;;20.95;84.39;100193.11;1822453;78;21094;-91
2022/08/03 04:16:01;;;;;;;37.65;28.32;;;;;;;20.98;84.16;100188.25;1822210;78;20841;-91
2022/08/03 04:18:30;;;;;;;33.83;27.10;;;;;;;21.06;84.07;100191.41;1822254;78;20967;-93
2022/08/03 04:21:00;;;;;;;39.80;29.20;;;;;;;21.11;83.71;100195.22;1822390;78;20923;-92
2022/08/03 04:23:27;;;;;;;31.57;27.50;;;;;;;21.17;83.47;100192.38;1822570;78;20971;-92
2022/08/03 04:25:54;;;;;;;38.75;27.32;;;;;;;21.25;83.25;100184.84;1821947;78;21244;-92
2022/08/03 04:28:20;;;;;;;36.98;27.13;;;;;;;21.35;83.01;100184.14;1822327;78;20907;-92
2022/08/03 04:30:47;;;;;;;33.90;27.00;;;;;;;21.43;82.68;100180.15;1822330;78;20959;-91
2022/08/03 04:33:14;;;;;;;32.60;27.07;;;;;;;21.55;82.49;100187.26;1822367;78;21460;-91
2022/08/03 04:35:40;;;;;;;31.95;26.57;;;;;;;21.69;81.87;100191.02;1822261;78;20931;-93
2022/08/03 04:38:07;;;;;;;27.48;24.45;;;;;;;21.86;81.29;100193.10;1822347;78;21150;-92
2022/08/03 04:40:35;;;;;;;30.48;26.20;;;;;;;22.06;80.79;100202.83;1822391;78;20915;-91
2022/08/03 04:43:02;;;;;;;31.17;25.45;;;;;;;22.29;80.25;100205.52;1822355;78;20919;-91
2022/08/03 04:45:29;;;;;;;27.90;24.10;;;;;;;22.50;79.59;100204.84;1790391;78;21561;-93
2022/08/03 04:47:55;;;;;;;28.98;24.07;;;;;;;22.69;78.79;100197.66;1822653;78;20954;-91
2022/08/03 04:50:22;;;;;;;34.60;25.10;;;;;;;22.86;78.18;100194.84;1822444;78;21195;-92
2022/08/03 04:52:51;;;;;;;27.93;23.77;;;;;;;22.99;77.90;100195.04;1819076;78;21326;-91
2022/08/03 04:55:27;;;;;;;27.25;21.55;;;;;;;23.14;77.49;100205.75;1822232;78;20888;-90
2022/08/03 04:57:54;;;;;;;23.47;21.20;;;;;;;23.33;76.93;100199.03;1821679;78;21439;-90
2022/08/03 05:00:21;;;;;;;22.15;19.98;;;;;;;23.51;76.14;100200.80;1822437;78;21403;-92
2022/08/03 05:02:48;;;;;;;23.98;21.48;;;;;;;23.71;75.41;100209.59;1821374;78;21860;-93
2022/08/03 05:05:16;;;;;;;20.52;18.70;;;;;;;23.92;74.79;100212.34;1820955;78;21531;-94
2022/08/03 05:07:43;;;;;;;20.80;18.70;;;;;;;24.14;74.30;100216.36;1820783;78;20924;-91
2022/08/03 05:10:11;;;;;;;23.85;18.55;;;;;;;24.41;73.58;100221.46;1820572;78;20963;-91
2022/08/03 05:12:39;;;;;;;22.17;19.98;;;;;;;24.64;72.72;100219.14;1821503;78;20952;-92
2022/08/03 05:15:07;;;;;;;21.35;19.35;;;;;;;24.76;71.87;100218.39;1763442;78;22875;-92
2022/08/03 05:17:34;;;;;;;25.40;21.70;;;;;;;24.84;71.43;100212.58;1821802;78;20951;-92
2022/08/03 05:20:02;;;;;;;23.50;21.25;;;;;;;24.88;71.08;100209.80;1821434;78;21000;-92
2022/08/03 05:22:29;;;;;;;23.07;21.05;;;;;;;24.89;70.75;100212.30;1822699;78;20923;-92
2022/08/03 05:24:56;;;;;;;23.07;20.90;;;;;;;24.88;70.75;100212.00;1823969;77;20891;-89
2022/08/03 05:27:23;;;;;;;22.22;19.40;;;;;;;24.88;70.78;100211.14;1828108;77;21223;-92
2022/08/03 05:29:51;;;;;;;24.12;21.77;;;;;;;24.87;70.86;100217.55;1827595;78;20832;-91
2022/08/03 05:32:17;;;;;;;24.35;22.00;;;;;;;24.84;70.99;100220.63;1827305;78;20946;-92
2022/08/03 05:34:45;;;;;;;27.62;24.75;;;;;;;24.80;70.87;100220.18;1826536;78;20966;-91
2022/08/03 05:37:13;;;;;;;23.40;21.12;;;;;;;24.76;70.45;100221.07;1826473;78;20904;-90
2022/08/03 05:39:40;;;;;;;23.95;21.70;;;;;;;24.74;70.57;100222.29;1826201;78;21321;-91
2022/08/03 05:42:06;;;;;;;24.85;22.35;;;;;;;24.75;71.06;100219.42;1826170;78;21024;-90
2022/08/03 05:44:37;;;;;;;25.68;23.12;;;;;;;24.80;71.20;100228.23;1826481;78;20962;-93
2022/08/03 05:47:02;;;;;;;26.15;23.40;;;;;;;24.84;71.30;100232.70;1826328;78;20930;-92
2022/08/03 05:49:28;;;;;;;24.75;22.32;;;;;;;24.85;71.26;100236.51;1826414;78;20946;-90
2022/08/03 05:51:55;;;;;;;26.02;23.57;;;;;;;24.88;71.14;100237.48;1827014;78;21953;-91
2022/08/03 05:54:22;;;;;;;26.35;23.07;;;;;;;24.91;70.84;100252.35;1826509;78;20840;-90
2022/08/03 05:56:50;;;;;;;25.08;22.40;;;;;;;24.94;70.99;100250.61;1826390;78;20860;-89
2022/08/03 05:59:17;;;;;;;28.32;25.00;;;;;;;24.94;70.64;100256.80;1825849;78;20934;-92
2022/08/03 06:01:43;;;;;;;25.62;23.07;;;;;;;24.97;70.11;100259.11;1826082;78;21318;-91
2022/08/03 06:04:10;;;;;;;36.30;24.82;;;;;;;24.93;69.82;100259.70;1826289;78;21221;-91
2022/08/03 06:06:41;;;;;;;25.57;22.87;;;;;;;24.94;69.85;100259.48;1826112;78;20950;-93
2022/08/03 06:09:12;;;;;;;27.58;24.70;;;;;;;25.07;69.51;100256.06;1826170;78;20882;-90
2022/08/03 06:11:40;;;;;;;25.68;22.90;;;;;;;25.31;69.25;100255.33;1826599;78;20888;-93
2022/08/03 06:14:06;;;;;;;26.85;24.07;;;;;;;25.74;68.67;100263.19;1799097;78;21424;-91
2022/08/03 06:16:34;;;;;;;24.67;22.27;;;;;;;26.12;67.12;100263.55;1826230;78;21118;-90
2022/08/03 06:19:01;;;;;;;26.27;23.55;;;;;;;26.39;65.56;100262.25;1826138;78;20902;-90
2022/08/03 06:21:27;;;;;;;26.57;23.77;;;;;;;26.56;64.67;100262.20;1826141;78;21398;-91
2022/08/03 06:23:54;;;;;;;25.50;22.90;;;;;;;26.72;63.56;100266.88;1798888;78;21116;-90
2022/08/03 06:26:20;;;;;;;25.92;23.02;;;;;;;26.85;63.31;100261.48;1824766;78;20872;-93
2022/08/03 06:28:48;;;;;;;27.37;24.75;;;;;;;27.01;63.19;100268.31;1822855;78;21161;-92
2022/08/03 06:31:15;;;;;;;29.63;22.27;;;;;;;27.15;62.86;100269.14;1823045;78;20959;-92
2022/08/03 06:33:41;;;;;;;27.15;24.45;;;;;;;27.34;62.76;100272.84;1823273;78;20955;-94
2022/08/03 06:36:08;;;;;;;28.38;25.48;;;;;;;27.46;62.35;100274.69;1790983;78;21208;-91
2022/08/03 06:38:34;;;;;;;29.20;24.70;;;;;;;27.54;61.10;100274.95;1791009;78;21116;-92
2022/08/03 06:41:01;;;;;;;27.37;24.70;;;;;;;27.52;61.04;100270.83;1823224;78;21345;-93
2022/08/03 06:43:27;;;;;;;29.45;26.35;;;;;;;27.47;61.01;100276.33;1823161;78;20947;-92
2022/08/03 06:45:54;;;;;;;28.95;26.02;;;;;;;27.41;61.18;100287.12;1823883;78;21010;-92
2022/08/03 06:48:21;;;;;;;28.32;25.75;;;;;;;27.37;60.91;100281.84;1824825;78;20884;-92
2022/08/03 06:50:49;;;;;;;29.20;25.57;;;;;;;27.38;61.26;100282.98;1824703;77;20918;-92
2022/08/03 06:53:16;;;;;;;29.32;26.23;;;;;;;27.39;60.71;100280.62;1824890;77;21051;-92
2022/08/03 06:55:42;;;;;;;26.33;23.20;;;;;;;27.31;60.32;100280.83;1824909;77;20848;-90
2022/08/03 06:58:10;;;;;;;27.07;24.45;;;;;;;27.39;60.95;100273.88;1823780;78;20919;-90
2022/08/03 07:00:39;;;;;;;26.20;23.73;;;;;;;27.68;60.61;100274.39;1823577;78;20967;-90
2022/08/03 07:03:05;;;;;;;25.50;22.98;;;;;;;28.02;59.85;100275.95;1822991;78;20935;-91
2022/08/03 07:05:33;;;;;;;26.12;23.18;;;;;;;28.31;59.07;100273.71;1822774;78;21177;-95
2022/08/03 07:08:02;;;;;;;24.92;22.20;;;;;;;28.68;58.08;100279.27;1823678;78;20879;-93
2022/08/03 07:10:29;;;;;;;25.20;23.00;;;;;;;29.13;57.13;100270.50;1823246;78;20860;-93
2022/08/03 07:12:56;;;;;;;24.37;22.00;;;;;;;29.65;55.82;100273.38;1765447;78;20939;-94
2022/08/03 07:15:24;;;;;;;23.10;21.12;;;;;;;30.10;54.68;100267.61;1822981;78;20883;-93
2022/08/03 07:17:52;;;;;;;24.47;21.90;;;;;;;30.48;54.03;100266.46;1823582;78;21228;-94
2022/08/03 07:20:22;;;;;;;25.52;22.85;;;;;;;30.82;52.75;100270.30;1822824;78;20844;-94
2022/08/03 07:22:49;;;;;;;22.70;20.65;;;;;;;31.09;52.17;100269.32;1791614;78;20915;-95
2022/08/03 07:25:19;;;;;;;25.62;23.35;;;;;;;31.42;50.95;100269.80;1823391;78;20916;-93
2022/08/03 07:27:46;;;;;;;25.68;23.27;;;;;;;31.66;50.02;100275.97;1826700;78;20899;-92
2022/08/03 07:30:15;;;;;;;25.55;23.20;;;;;;;31.77;48.85;100267.82;1826665;78;21130;-94
2022/08/03 07:32:42;;;;;;;26.45;23.95;;;;;;;31.84;48.60;100266.83;1826508;78;20875;-92
2022/08/03 07:35:09;;;;;;;25.92;23.60;;;;;;;31.90;48.31;100266.69;1826581;78;21021;-92
2022/08/03 07:37:36;;;;;;;26.68;24.18;;;;;;;31.93;48.01;100261.34;1826532;78;20923;-92
2022/08/03 07:40:06;;;;;;;25.20;23.00;;;;;;;32.00;48.04;100262.86;1799759;78;20986;-93
2022/08/03 07:42:33;;;;;;;24.95;22.70;;;;;;;31.93;47.96;100277.62;1826844;78;21232;-92
2022/08/03 07:45:00;;;;;;;25.40;23.10;;;;;;;31.80;48.19;100274.11;1826846;78;20884;-94
2022/08/03 07:47:29;;;;;;;24.47;22.02;;;;;;;31.80;48.53;100276.00;1825818;78;20923;-90
2022/08/03 07:49:56;;;;;;;25.45;22.87;;;;;;;31.71;48.82;100284.23;1826568;78;20915;-92
2022/08/03 07:55:09;;;;;;;23.67;21.55;;;;;;;31.49;48.80;100292.99;1826913;78;21812;-92
2022/08/03 07:57:40;;;;;;;23.70;21.57;;;;;;;31.59;49.33;100287.80;1825752;78;20899;-90
2022/08/03 08:00:09;;;;;;;23.67;21.45;;;;;;;31.75;49.20;100279.95;1826349;78;20923;-92
2022/08/03 08:02:41;;;;;;;24.10;21.82;;;;;;;31.78;48.26;100280.30;1826996;78;20962;-92
2022/08/03 08:05:09;;;;;;;23.12;21.02;;;;;;;31.74;47.57;100287.80;1826946;78;20959;-92
2022/08/03 08:07:37;;;;;;;23.60;21.50;;;;;;;31.44;48.40;100288.83;1827691;78;21236;-94
2022/08/03 08:10:06;;;;;;;25.00;22.62;;;;;;;31.09;48.91;100290.17;1827529;78;20951;-93
2022/08/03 08:12:33;;;;;;;24.95;22.90;;;;;;;30.76;49.72;100293.70;1826717;78;20879;-93
2022/08/03 08:15:00;;;;;;;24.37;22.17;;;;;;;30.43;50.20;100296.11;1799800;78;20962;-93
2022/08/03 08:17:27;;;;;;;23.80;21.55;;;;;;;30.08;51.48;100292.20;1828034;77;20997;-92
2022/08/03 08:19:58;;;;;;;20.15;18.25;;;;;;;29.82;52.42;100296.07;1827710;77;20919;-94
2022/08/03 08:22:24;;;;;;;19.98;18.27;;;;;;;29.49;52.42;100294.55;1828402;77;20934;-94
2022/08/03 08:24:51;;;;;;;19.75;17.67;;;;;;;29.06;52.91;100290.47;1827783;78;20891;-93
2022/08/03 08:27:18;;;;;;;19.12;17.55;;;;;;;28.71;53.75;100296.39;1824707;78;20982;-93
2022/08/03 08:29:46;;;;;;;19.85;18.07;;;;;;;28.46;54.49;100297.16;1823708;78;20871;-93
2022/08/03 08:32:14;;;;;;;19.67;17.73;;;;;;;28.30;55.34;100296.31;1823839;78;20859;-93
2022/08/03 08:34:43;;;;;;;21.10;19.30;;;;;;;28.18;56.05;100293.48;1823214;78;20868;-94
2022/08/03 08:37:10;;;;;;;21.10;19.15;;;;;;;28.11;56.18;100302.14;1823191;78;20942;-93
2022/08/03 08:39:38;;;;;;;22.13;18.95;;;;;;;28.05;56.46;100305.16;1823606;78;20935;-94
2022/08/03 08:42:06;;;;;;;19.57;17.77;;;;;;;28.01;56.91;100300.41;1822847;78;20951;-95
2022/08/03 08:44:33;;;;;;;19.27;17.57;;;;;;;28.07;56.98;100300.38;1823345;78;21169;-92
2022/08/03 08:47:02;;;;;;;19.48;17.62;;;;;;;28.26;57.18;100295.94;1823406;78;20860;-94
2022/08/03 08:49:32;;;;;;;19.82;17.85;;;;;;;28.69;56.88;100297.13;1792470;78;20872;-93
2022/08/03 08:52:01;;;;;;;19.48;17.98;;;;;;;29.03;56.19;100295.80;1823119;78;20915;-93
2022/08/03 08:54:28;;;;;;;18.60;16.80;;;;;;;29.44;55.52;100292.23;1823336;78;20936;-94
2022/08/03 08:56:55;;;;;;;18.57;16.70;;;;;;;29.85;54.86;100286.14;1823413;78;21100;-95
2022/08/03 08:59:23;;;;;;;17.55;16.15;;;;;;;30.18;54.16;100290.30;1823846;78;20884;-93
2022/08/03 09:01:53;;;;;;;17.35;15.95;;;;;;;30.37;53.21;100293.78;1823425;78;21033;-92
2022/08/03 09:04:19;;;;;;;17.15;15.75;;;;;;;30.57;52.57;100294.84;1823576;78;20895;-92
2022/08/03 09:06:48;;;;;;;18.32;16.82;;;;;;;30.56;51.92;100281.84;1791915;78;20947;-92
2022/08/03 09:09:16;;;;;;;19.15;17.35;;;;;;;30.51;51.76;100283.61;1792539;78;20968;-94
2022/08/03 09:11:42;;;;;;;17.62;16.10;;;;;;;30.35;51.98;100294.56;1824130;78;21408;-93
2022/08/03 09:14:10;;;;;;;19.25;17.30;;;;;;;30.14;52.35;100283.69;1824261;78;20860;-92
2022/08/03 09:16:52;;;;;;;18.60;17.00;;;;;;;29.93;53.26;100293.95;1824228;78;20966;-93
2022/08/03 09:19:19;;;;;;;17.05;15.63;;;;;;;29.75;53.86;100300.20;1801269;78;21447;-93
2022/08/03 09:21:45;;;;;;;20.60;18.73;;;;;;;29.52;54.65;100300.84;1824403;78;21015;-94
2022/08/03 09:24:13;;;;;;;23.62;19.73;;;;;;;29.27;55.58;100302.25;1792906;78;21033;-92
2022/08/03 09:26:46;;;;;;;24.37;21.95;;;;;;;28.99;56.91;100305.91;1823845;78;20939;-95
2022/08/03 09:29:13;;;;;;;23.98;21.57;;;;;;;28.65;58.20;100303.48;1793756;78;20919;-94
2022/08/03 09:31:45;;;;;;;24.05;21.85;;;;;;;28.31;59.54;100304.72;1766231;78;20879;-95
2022/08/03 09:34:16;;;;;;;23.20;21.33;;;;;;;28.04;60.35;100308.09;1792174;78;21849;-92
2022/08/03 09:36:46;;;;;;;24.15;21.95;;;;;;;27.82;61.44;100303.48;1823485;78;20911;-93
2022/08/03 09:39:19;;;;;;;25.37;23.00;;;;;;;27.62;62.72;100307.06;1824068;78;20962;-95
2022/08/03 09:42:03;;;;;;;23.22;21.07;;;;;;;27.43;63.10;100311.98;1823601;78;20927;-95
2022/08/03 09:44:37;;;;;;;25.60;23.35;;;;;;;27.22;63.71;100313.06;1823829;78;20907;-94
2022/08/03 09:47:04;;;;;;;23.47;21.37;;;;;;;27.06;64.76;100324.53;1824205;78;21059;-93
2022/08/03 09:49:35;;;;;;;25.08;22.67;;;;;;;26.94;65.14;100325.35;1824619;78;20882;-93
2022/08/03 09:52:17;;;;;;;24.10;22.10;;;;;;;26.81;66.03;100328.36;1792610;78;20841;-94
2022/08/03 09:54:52;;;;;;;24.07;21.75;;;;;;;26.73;66.66;100333.11;1824013;78;20931;-92
2022/08/03 09:57:24;;;;;;;23.45;21.42;;;;;;;26.63;67.26;100335.66;1824187;78;20899;-94
2022/08/03 09:59:51;;;;;;;23.10;20.95;;;;;;;26.59;67.91;100333.09;1824081;78;21072;-92
2022/08/03 10:02:23;;;;;;;21.90;19.90;;;;;;;26.55;67.90;100327.80;1792353;78;20910;-91
2022/08/03 10:04:51;;;;;;;22.80;20.25;;;;;;;26.52;67.33;100326.81;1824095;78;20912;-92
2022/08/03 10:07:21;;;;;;;20.68;18.92;;;;;;;26.44;67.65;100319.78;1824241;78;20884;-92
2022/08/03 10:10:00;;;;;;;19.32;17.70;;;;;;;26.35;67.58;100323.70;1824664;78;20966;-92
2022/08/03 10:12:28;;;;;;;19.32;17.48;;;;;;;26.30;67.33;100330.17;1824746;78;22211;-93
2022/08/03 10:14:56;;;;;;;20.80;19.00;;;;;;;26.25;67.08;100325.41;1824837;78;20916;-89
2022/08/03 10:17:25;;;;;;;20.62;18.80;;;;;;;26.25;67.47;100321.89;1825165;77;20986;-89
2022/08/03 10:19:57;;;;;;;21.35;19.45;;;;;;;26.31;67.84;100333.72;1824721;78;20899;-88
2022/08/03 10:22:45;;;;;;;20.77;19.02;;;;;;;26.35;68.18;100337.66;1825098;78;20969;-90
2022/08/03 10:25:19;;;;;;;21.93;19.82;;;;;;;26.36;68.80;100340.12;1821311;77;20911;-91
2022/08/03 10:27:47;;;;;;;21.73;19.82;;;;;;;26.34;69.13;100342.70;1823283;78;20947;-93
2022/08/03 10:30:18;;;;;;;21.23;19.23;;;;;;;26.28;69.19;100340.82;1823858;78;21424;-92
2022/08/03 10:32:57;;;;;;;17.52;15.90;;;;;;;26.14;69.46;100343.46;1823679;78;20931;-93
2022/08/03 10:35:25;;;;;;;16.10;14.78;;;;;;;25.99;69.46;100331.54;1823675;78;20958;-91
2022/08/03 10:38:02;;;;;;;15.72;14.53;;;;;;;25.81;69.08;100328.50;1823997;78;21858;-92
2022/08/03 10:40:31;;;;;;;18.02;16.42;;;;;;;25.67;69.33;100348.28;1792052;78;20892;-91
2022/08/03 10:43:08;;;;;;;16.27;14.87;;;;;;;25.58;70.15;100367.75;1824021;78;20864;-91
2022/08/03 10:45:37;;;;;;;14.40;13.20;;;;;;;25.49;70.04;100381.83;1824900;78;20998;-90
2022/08/03 10:48:04;;;;;;;15.38;14.10;;;;;;;25.46;69.73;100391.64;1825085;78;20904;-93
2022/08/03 10:50:31;;;;;;;10.63;9.73;;;;;;;25.43;69.91;100387.48;1824679;78;21067;-91
2022/08/03 10:53:06;;;;;;;10.20;9.30;;;;;;;25.39;68.29;100388.90;1824878;78;20931;-92
2022/08/03 10:58:50;;;;;;;9.70;8.90;;;;;;;25.32;66.41;100375.91;1822424;77;20943;-91
2022/08/03 11:01:19;;;;;;;8.78;8.08;;;;;;;25.35;66.52;100381.44;1824797;77;21173;-91
2022/08/03 11:03:57;;;;;;;8.60;7.85;;;;;;;25.46;66.62;100375.52;1824722;77;21193;-92
2022/08/03 11:06:27;;;;;;;7.12;6.50;;;;;;;25.58;65.88;100373.94;1732953;77;20976;-90
2022/08/03 11:09:16;;;;;;;6.00;5.60;;;;;;;25.61;64.39;100381.62;1794330;79;20865;-91
2022/08/03 11:11:47;;;;;;;7.28;6.78;;;;;;;25.80;63.51;100377.38;1778415;80;20955;-90
2022/08/03 11:14:19;;;;;;;6.72;6.22;;;;;;;26.15;63.64;100376.05;1794047;78;20952;-92
2022/08/03 11:16:51;;;;;;;5.12;4.72;;;;;;;26.59;62.71;100376.63;1789051;79;20888;-90
2022/08/03 11:19:26;;;;;;;5.92;5.53;;;;;;;26.80;58.61;100373.78;1722602;80;20931;-92
2022/08/03 11:21:54;;;;;;;5.10;4.70;;;;;;;26.84;57.61;100381.76;1722440;80;20837;-92
2022/08/03 11:24:55;;;;;;;5.85;5.47;;;;;;;26.83;56.88;100387.34;1759568;78;20970;-91
2022/08/03 11:27:19;;;;;;;5.50;5.10;;;;;;;26.75;56.95;100382.98;1750439;78;20997;31
2022/08/03 11:30:18;;;;;;;5.37;4.95;;;;;;;26.67;56.63;100386.68;1695908;82;21131;-93
2022/08/03 11:32:51;;;;;;;5.30;4.92;;;;;;;26.64;56.97;100378.21;1706515;81;20895;-92
2022/08/03 11:35:24;;;;;;;9.20;5.75;;;;;;;26.69;56.68;100377.08;1706667;81;20903;-90